Prairieville, LA (70769)

12:19 PM CST on February 08, 2016 (GMT -0600)
Seven Oaks | | Change Station
CLOSE
Current Station
Personal Weather Station
Location: Prairieville, LA
Elevation: 48 ft
Nearby Weather Stations
Active Advisory: Wind Advisory

Elev 48 ft 30.29 °N, 90.97 °W | Updated 6 seconds ago

Clear
Clear
57.7 °F
Feels Like 57.7 °F
N
18.0
Wind Variable Wind from NW
Gusts 24.0 mph

Today
High -- | Low -- °F
--% Chance of Precip.
Yesterday
High -- | Low -- °F
Precip. -- in
Pressure 30.10 in
Visibility 10.0 miles
Clouds Clear
Dew Point 25 °F
Humidity 28%
Rainfall 0.00 in
Snow Depth Not available.
6:50 AM 5:46 PM
New Moon, 0% visible
METAR KL38 081755Z AUTO 33014G25KT 10SM CLR 14/M05 A3010 RMK AO2 T01371053 10138 20068
Pressure 30.10 in
Visibility 10.0 miles
Clouds Clear
Dew Point 25 °F
Humidity 28%
Rainfall 0.00 in
Snow Depth Not available.
6:50 AM 5:46 PM
New Moon, 0% visible
METAR KL38 081755Z AUTO 33014G25KT 10SM CLR 14/M05 A3010 RMK AO2 T01371053 10138 20068

10-Day Weather Forecast

Almanac

Astronomy

Feb. 08, 2016 Rise Set
Actual Time
Civil Twilight
Nautical Twilight
Astronomical Twilight
Moon
Length of Visible Light
Length of Day
Tomorrow will be .
, % of the Moon is Illuminated

Today's Extremes

State Highs State Lows

Community

WunderPhotos

Upload Photos

1,891,475 photos uploaded!

WunderBlog® & News

Nearby

Air Quality

  Air Quality AQ Index Pollutant
Not available.

Snow Depth

Station Depth Elevation

Earthquake Activity

City Distance Mag. Time & Date
Minimum magnitude displayed is 2.5.

Coastal Water Temperatures

Place Temperature

Stations

Nearby Weather Stations

Station Location Temp. Windchill Dew Point Humidity Wind Precip. Elev Updated Type
                   

Watches & Warnings

Wind Advisory
Issued: 10:09 AM CST Feb. 8, 2016 – National Weather Service

... Wind Advisory remains in effect until 6 PM CST this evening...

* winds... near 20 mph with frequent gusts of 30 to 35 mph.

* Duration... 6 to 10 hours.

* Impacts... windy conditions will lead to difficult driving
conditions especially along elevated roadways along with
east/west highways and interstates.

Precautionary/preparedness actions...

A Wind Advisory means that winds of 26 to 39 mph are expected.
Winds this strong can make driving difficult... especially for
high profile vehicles. Use extra caution.